KCCB/CCB METAR and TAF weather

Enter ICAO airport designator
Station Type Date Time Source
KCCB METAR 2019/12/11 15:15 UTC NOAA

KCCB 111515Z AUTO 00000KT 10SM CLR 10/M00 A3019 RMK AO2


Station Type Date Time Source
KCCB Decoded METAR 2019/12/11 15:15 UTC NOAA

Station name not available
Dec 11, 2019 - 10:15 AM EST / 2019.12.11 1515 UTC
Wind: Calm:0
Visibility: 10 mile(s):0
Sky conditions: clear
Temperature: 50 F (10 C)
Dew Point: 32 F (0 C)
Relative Humidity: 49%
Pressure (altimeter): 30.19 in. Hg (1022 hPa)
ob: KCCB 111515Z AUTO 00000KT 10SM CLR 10/M00 A3019 RMK AO2
cycle: 15

Station Type Date Time Source
KCCB TAF UTC NOAA

Error!

Example: see airport list